createdAt,value
2022-11-15T00:01:00.031Z,97076.09
2022-11-15T00:03:45.857Z,97072.66
2022-11-15T00:06:31.195Z,97075.44
2022-11-15T00:09:16.331Z,97070.59
2022-11-15T00:12:01.256Z,97071.19
2022-11-15T00:14:46.080Z,97079.78
2022-11-15T00:17:31.042Z,97086.03
2022-11-15T00:20:16.098Z,97078.31
2022-11-15T00:23:01.360Z,97078.78
2022-11-15T00:25:46.382Z,97075.00
2022-11-15T00:28:31.243Z,97069.06
2022-11-15T00:31:16.245Z,97062.69
2022-11-15T00:34:01.082Z,97071.22
2022-11-15T00:36:46.024Z,97069.06
2022-11-15T00:39:30.881Z,97070.47
2022-11-15T00:42:15.889Z,97073.53
2022-11-15T00:45:00.808Z,97071.06
2022-11-15T00:47:47.152Z,97068.75
2022-11-15T00:50:32.087Z,97060.66
2022-11-15T00:53:17.584Z,97053.88
2022-11-15T00:56:02.601Z,97058.78
2022-11-15T00:58:47.639Z,97047.44
2022-11-15T01:01:32.655Z,97045.09
2022-11-15T01:04:17.611Z,97051.78
2022-11-15T01:07:02.832Z,97048.28
2022-11-15T01:09:48.027Z,97036.66
2022-11-15T01:12:32.999Z,97044.03
2022-11-15T01:15:18.601Z,97047.69
2022-11-15T01:18:03.847Z,97041.47
2022-11-15T01:20:48.983Z,97040.31
2022-11-15T01:23:34.015Z,97042.22
2022-11-15T01:26:19.296Z,97033.41
2022-11-15T01:29:04.365Z,97027.94
2022-11-15T01:31:49.448Z,97034.47
2022-11-15T01:34:34.294Z,97025.00
2022-11-15T01:37:19.063Z,97025.81
2022-11-15T01:40:04.570Z,97024.63
2022-11-15T01:42:49.421Z,97021.72
2022-11-15T01:45:34.301Z,97021.72
2022-11-15T01:48:19.508Z,97021.16
2022-11-15T01:51:10.042Z,97022.16
2022-11-15T01:53:59.569Z,97019.16
2022-11-15T01:56:51.817Z,97015.16
2022-11-15T01:59:40.904Z,97011.84
2022-11-15T02:02:26.439Z,97007.88
2022-11-15T02:05:12.085Z,97001.91
2022-11-15T02:07:57.948Z,97002.34
2022-11-15T02:10:43.023Z,96998.53
2022-11-15T02:13:28.952Z,97009.56
2022-11-15T02:16:53.610Z,97009.72
2022-11-15T02:20:01.990Z,97001.84
2022-11-15T02:23:07.177Z,96996.94
2022-11-15T02:26:23.101Z,96984.53
2022-11-15T02:29:15.727Z,96977.97
2022-11-15T02:32:22.717Z,96977.94
2022-11-15T02:35:21.578Z,96972.50
2022-11-15T02:38:26.015Z,96975.19
2022-11-15T02:41:16.416Z,96973.16
2022-11-15T02:44:24.699Z,96966.69
2022-11-15T02:47:14.556Z,96962.97
2022-11-15T02:50:08.139Z,96968.59
2022-11-15T02:52:53.812Z,96966.38
2022-11-15T02:55:49.386Z,96964.50
2022-11-15T02:59:10.331Z,96948.19
2022-11-15T03:02:16.883Z,96945.78
2022-11-15T03:05:22.838Z,96950.53
2022-11-15T03:08:32.459Z,96944.19
2022-11-15T03:11:23.798Z,96937.50
2022-11-15T03:14:26.512Z,96932.59
2022-11-15T03:17:26.660Z,96930.53
2022-11-15T03:20:14.718Z,96935.13
2022-11-15T03:23:09.144Z,96938.03
2022-11-15T03:25:55.869Z,96935.13
2022-11-15T03:28:54.459Z,96937.41
2022-11-15T03:31:50.340Z,96934.28
2022-11-15T03:34:35.798Z,96932.31
2022-11-15T03:37:26.162Z,96923.06
2022-11-15T03:40:11.720Z,96927.41
2022-11-15T03:43:07.334Z,96919.59
2022-11-15T03:46:00.457Z,96927.66
2022-11-15T03:48:51.078Z,96913.28
2022-11-15T03:51:36.190Z,96906.75
2022-11-15T03:54:21.286Z,96911.56
2022-11-15T03:57:06.230Z,96908.19
2022-11-15T03:59:50.992Z,96919.53
2022-11-15T04:02:35.858Z,96912.34
2022-11-15T04:05:20.899Z,96919.03
2022-11-15T04:08:05.751Z,96914.34
2022-11-15T04:10:50.964Z,96916.34
2022-11-15T04:13:35.767Z,96918.59
2022-11-15T04:16:20.706Z,96922.81
2022-11-15T04:19:24.482Z,96909.88
2022-11-15T04:22:28.291Z,96907.34
2022-11-15T04:25:13.568Z,96904.81
2022-11-15T04:27:58.833Z,96902.03
2022-11-15T04:30:43.804Z,96902.47
2022-11-15T04:33:28.932Z,96902.84
2022-11-15T04:36:32.725Z,96906.09
2022-11-15T04:39:18.025Z,96892.44
2022-11-15T04:42:03.200Z,96889.81
2022-11-15T04:44:48.006Z,96892.28
2022-11-15T04:47:32.960Z,96900.13
2022-11-15T04:50:18.205Z,96889.41
2022-11-15T04:53:03.179Z,96888.06
2022-11-15T04:55:48.163Z,96891.97
2022-11-15T04:58:33.177Z,96881.56
2022-11-15T05:01:18.628Z,96883.81
2022-11-15T05:04:22.228Z,96880.22
2022-11-15T05:07:07.180Z,96878.50
2022-11-15T05:09:52.360Z,96874.41
2022-11-15T05:12:37.540Z,96874.06
2022-11-15T05:15:22.918Z,96874.19
2022-11-15T05:18:07.796Z,96872.91
2022-11-15T05:20:52.757Z,96862.25
2022-11-15T05:23:37.936Z,96862.03
2022-11-15T05:26:22.848Z,96871.22
2022-11-15T05:29:10.980Z,96864.41
2022-11-15T05:31:56.084Z,96853.50
2022-11-15T05:34:41.320Z,96848.81
2022-11-15T05:37:26.124Z,96859.16
2022-11-15T05:40:10.988Z,96843.72
2022-11-15T05:42:55.860Z,96846.00
2022-11-15T05:45:41.099Z,96853.91
2022-11-15T05:48:26.587Z,96860.47
2022-11-15T05:51:14.784Z,96846.69
2022-11-15T05:54:01.619Z,96842.06
2022-11-15T05:56:46.985Z,96848.91
2022-11-15T05:59:32.836Z,96854.66
2022-11-15T06:02:17.856Z,96843.53
2022-11-15T06:05:02.769Z,96842.81
2022-11-15T06:07:47.927Z,96836.97
2022-11-15T06:10:33.574Z,96852.75
2022-11-15T06:13:18.474Z,96854.13
2022-11-15T06:16:03.646Z,96843.66
2022-11-15T06:18:48.834Z,96847.47
2022-11-15T06:21:34.004Z,96849.63
2022-11-15T06:24:19.026Z,96845.78
2022-11-15T06:27:04.036Z,96850.34
2022-11-15T06:29:49.168Z,96836.88
2022-11-15T06:32:34.124Z,96850.03
2022-11-15T06:35:19.266Z,96853.72
2022-11-15T06:38:14.328Z,96852.16
2022-11-15T06:41:04.387Z,96855.59
2022-11-15T06:43:49.479Z,96853.53
2022-11-15T06:46:34.375Z,96858.19
2022-11-15T06:49:19.128Z,96857.94
2022-11-15T06:52:04.218Z,96859.09
2022-11-15T06:54:49.461Z,96864.31
2022-11-15T06:57:34.392Z,96868.56
2022-11-15T07:00:21.285Z,96861.38
2022-11-15T07:03:06.563Z,96854.69
2022-11-15T07:05:54.275Z,96865.31
2022-11-15T07:08:39.251Z,96876.75
2022-11-15T07:11:24.139Z,96863.34
2022-11-15T07:14:09.331Z,96862.03
2022-11-15T07:16:54.099Z,96869.38
2022-11-15T07:19:39.035Z,96867.06
2022-11-15T07:22:23.888Z,96862.41
2022-11-15T07:25:10.022Z,96869.44
2022-11-15T07:27:59.431Z,96861.91
2022-11-15T07:30:45.525Z,96869.50
2022-11-15T07:33:30.618Z,96865.53
2022-11-15T07:36:15.739Z,96862.25
2022-11-15T07:39:00.591Z,96860.09
2022-11-15T07:41:45.615Z,96854.69
2022-11-15T07:44:30.549Z,96857.13
2022-11-15T07:47:15.824Z,96857.41
2022-11-15T07:50:01.076Z,96857.72
2022-11-15T07:52:46.136Z,96853.75
2022-11-15T07:55:31.159Z,96854.63
2022-11-15T07:58:16.048Z,96848.97
2022-11-15T08:01:05.237Z,96852.78
2022-11-15T08:03:50.259Z,96859.03
2022-11-15T08:06:35.177Z,96858.84
2022-11-15T08:09:20.495Z,96855.44
2022-11-15T08:12:06.376Z,96854.63
2022-11-15T08:14:51.162Z,96850.97
2022-11-15T08:17:36.317Z,96848.28
2022-11-15T08:20:21.275Z,96843.69
2022-11-15T08:23:07.076Z,96844.56
2022-11-15T08:25:51.874Z,96836.84
2022-11-15T08:28:36.898Z,96839.56
2022-11-15T08:31:21.684Z,96836.63
2022-11-15T08:34:07.077Z,96835.63
2022-11-15T08:36:51.985Z,96829.19
2022-11-15T08:39:36.917Z,96831.88
2022-11-15T08:42:22.058Z,96826.53
2022-11-15T08:45:08.552Z,96820.78
2022-11-15T08:47:54.633Z,96817.69
2022-11-15T08:50:39.621Z,96819.03
2022-11-15T08:53:24.838Z,96813.56
2022-11-15T08:56:11.952Z,96818.78
2022-11-15T08:58:57.202Z,96815.31
2022-11-15T09:01:42.345Z,96813.97
2022-11-15T09:04:27.110Z,96805.84
2022-11-15T09:07:12.802Z,96818.03
2022-11-15T09:09:58.136Z,96813.47
2022-11-15T09:12:44.118Z,96811.84
2022-11-15T09:15:29.268Z,96813.19
2022-11-15T09:18:14.295Z,96812.69
2022-11-15T09:21:00.644Z,96807.53
2022-11-15T09:23:46.008Z,96809.44
2022-11-15T09:26:31.302Z,96808.03
2022-11-15T09:29:16.225Z,96799.38
2022-11-15T09:32:01.176Z,96792.91
2022-11-15T09:34:46.443Z,96796.94
2022-11-15T09:37:33.177Z,96792.09
2022-11-15T09:40:21.398Z,96788.84
2022-11-15T09:43:50.984Z,96783.41
2022-11-15T09:47:03.461Z,96779.88
2022-11-15T09:49:46.655Z,96779.88
2022-11-15T09:52:20.254Z,96779.63
2022-11-15T09:54:55.202Z,96782.59
2022-11-15T09:57:25.192Z,96775.53
2022-11-15T10:02:59.049Z,96778.00
2022-11-15T10:05:27.048Z,96774.22
2022-11-15T10:08:04.314Z,96775.56
2022-11-15T10:10:43.719Z,96766.63
2022-11-15T10:13:17.813Z,96766.91
2022-11-15T10:15:46.543Z,96768.78
2022-11-15T10:18:29.388Z,96766.88
2022-11-15T10:21:00.872Z,96760.63
2022-11-15T10:23:28.653Z,96763.38
2022-11-15T10:26:03.673Z,96761.47
2022-11-15T10:28:33.223Z,96751.44
2022-11-15T10:31:05.590Z,96746.03
2022-11-15T10:33:35.083Z,96742.75
2022-11-15T10:36:26.112Z,96743.28
2022-11-15T10:38:52.581Z,96735.44
2022-11-15T10:41:27.920Z,96738.97
2022-11-15T10:44:32.439Z,96731.91
2022-11-15T10:47:05.559Z,96733.75
2022-11-15T10:49:33.918Z,96730.84
2022-11-15T10:52:05.329Z,96719.75
2022-11-15T10:54:38.755Z,96718.06
2022-11-15T10:57:22.780Z,96715.09
2022-11-15T10:59:55.652Z,96717.00
2022-11-15T11:02:30.170Z,96717.25
2022-11-15T11:04:57.100Z,96721.09
2022-11-15T11:07:32.555Z,96710.50
2022-11-15T11:10:01.919Z,96709.41
2022-11-15T11:12:32.283Z,96708.31
2022-11-15T11:15:01.910Z,96706.97
2022-11-15T11:17:43.802Z,96703.97
2022-11-15T11:20:21.592Z,96703.72
2022-11-15T11:23:18.368Z,96696.91
2022-11-15T11:26:02.644Z,96694.44
2022-11-15T11:28:47.872Z,96687.38
2022-11-15T11:31:21.024Z,96678.13
2022-11-15T11:34:10.651Z,96679.75
2022-11-15T11:36:52.043Z,96670.50
2022-11-15T11:39:33.889Z,96661.47
2022-11-15T11:42:00.260Z,96663.84
2022-11-15T11:44:26.607Z,96655.44
2022-11-15T11:46:59.128Z,96654.47
2022-11-15T11:49:47.408Z,96657.38
2022-11-15T11:52:19.727Z,96658.16
2022-11-15T11:54:56.436Z,96646.75
2022-11-15T11:57:32.795Z,96647.31
2022-11-15T12:00:18.448Z,96646.69
2022-11-15T12:03:10.172Z,96631.44
2022-11-15T12:05:40.290Z,96630.28
2022-11-15T12:08:36.837Z,96629.50
2022-11-15T12:11:09.296Z,96630.78
2022-11-15T12:13:37.718Z,96615.06
2022-11-15T12:16:43.127Z,96629.50
2022-11-15T12:19:09.630Z,96617.44
2022-11-15T12:21:47.690Z,96620.38
2022-11-15T12:24:21.410Z,96615.19
2022-11-15T12:27:02.630Z,96611.63
2022-11-15T12:29:37.554Z,96615.09
2022-11-15T12:32:05.520Z,96611.91
2022-11-15T12:34:41.336Z,96614.66
2022-11-15T12:37:36.613Z,96601.91
2022-11-15T12:40:24.188Z,96609.94
2022-11-15T12:43:06.021Z,96605.84
2022-11-15T12:45:34.448Z,96604.25
2022-11-15T12:48:26.552Z,96602.00
2022-11-15T12:50:54.385Z,96601.66
2022-11-15T12:53:23.900Z,96596.13
2022-11-15T12:56:05.437Z,96591.09
2022-11-15T12:58:53.767Z,96586.97
2022-11-15T13:01:36.044Z,96587.25
2022-11-15T13:04:29.792Z,96585.44
2022-11-15T13:06:58.329Z,96566.34
2022-11-15T13:09:37.191Z,96569.78
2022-11-15T13:12:22.529Z,96560.56
2022-11-15T13:14:52.406Z,96564.22
2022-11-15T13:17:41.281Z,96562.59
2022-11-15T13:20:07.647Z,96548.66
2022-11-15T13:23:04.582Z,96544.88
2022-11-15T13:25:40.025Z,96547.59
2022-11-15T13:28:15.566Z,96542.16
2022-11-15T13:31:19.499Z,96539.72
2022-11-15T13:33:45.979Z,96534.44
2022-11-15T13:36:28.247Z,96532.84
2022-11-15T13:39:07.328Z,96535.91
2022-11-15T13:41:36.064Z,96525.59
2022-11-15T13:44:04.464Z,96523.19
2022-11-15T13:46:35.028Z,96519.38
2022-11-15T13:49:08.817Z,96521.19
2022-11-15T13:51:45.942Z,96521.28
2022-11-15T13:54:21.825Z,96516.28
2022-11-15T13:56:53.346Z,96513.28
2022-11-15T13:59:37.787Z,96503.66
2022-11-15T14:02:17.975Z,96513.19
2022-11-15T14:04:51.278Z,96503.13
2022-11-15T14:07:20.808Z,96498.63
2022-11-15T14:09:48.000Z,96497.25
2022-11-15T14:12:50.787Z,96495.63
2022-11-15T14:15:20.110Z,96486.97
2022-11-15T14:17:49.980Z,96484.81
2022-11-15T14:20:39.511Z,96481.63
2022-11-15T14:23:27.632Z,96483.22
2022-11-15T14:25:58.735Z,96477.72
2022-11-15T14:28:25.091Z,96472.63
2022-11-15T14:30:53.861Z,96471.34
2022-11-15T14:33:25.952Z,96459.91
2022-11-15T14:35:53.756Z,96467.22
2022-11-15T14:38:20.311Z,96454.97
2022-11-15T14:40:46.796Z,96453.88
2022-11-15T14:43:14.158Z,96449.28
2022-11-15T14:45:41.246Z,96442.69
2022-11-15T14:48:07.801Z,96442.69
2022-11-15T14:50:35.103Z,96439.19
2022-11-15T14:53:02.332Z,96435.38
2022-11-15T14:55:32.859Z,96435.09
2022-11-15T14:58:00.120Z,96429.81
2022-11-15T15:00:30.856Z,96429.31
2022-11-15T15:03:00.348Z,96424.50
2022-11-15T15:05:31.908Z,96419.84
2022-11-15T15:07:58.391Z,96424.88
2022-11-15T15:10:40.223Z,96416.19
2022-11-15T15:13:20.260Z,96414.69
2022-11-15T15:15:47.879Z,96418.66
2022-11-15T15:18:14.500Z,96407.25
2022-11-15T15:20:42.957Z,96400.38
2022-11-15T15:23:19.811Z,96405.78
2022-11-15T15:25:48.712Z,96403.69
2022-11-15T15:28:15.696Z,96401.50
2022-11-15T15:30:42.157Z,96394.38
2022-11-15T15:33:08.583Z,96390.84
2022-11-15T15:35:36.069Z,96391.44
2022-11-15T15:38:03.219Z,96391.31
2022-11-15T15:40:32.188Z,96389.72
2022-11-15T15:42:58.703Z,96390.31
2022-11-15T15:45:26.582Z,96380.91
2022-11-15T15:47:53.109Z,96380.66
2022-11-15T15:50:29.343Z,96378.78
2022-11-15T15:52:58.238Z,96372.34
2022-11-15T15:55:25.125Z,96374.25
2022-11-15T15:57:51.811Z,96362.56
2022-11-15T16:00:19.682Z,96353.63
2022-11-15T16:02:46.763Z,96352.56
2022-11-15T16:05:13.780Z,96347.63
2022-11-15T16:07:41.408Z,96351.41
2022-11-15T16:10:22.187Z,96344.06
2022-11-15T16:12:49.468Z,96341.63
2022-11-15T16:15:16.330Z,96339.16
2022-11-15T16:17:48.916Z,96332.06
2022-11-15T16:20:38.606Z,96333.16
2022-11-15T16:23:09.561Z,96330.81
2022-11-15T16:25:50.546Z,96325.47
2022-11-15T16:28:23.831Z,96321.63
2022-11-15T16:30:59.554Z,96316.47
2022-11-15T16:33:26.025Z,96319.13
2022-11-15T16:35:52.550Z,96318.22
2022-11-15T16:38:19.139Z,96308.44
2022-11-15T16:40:45.923Z,96307.13
2022-11-15T16:43:12.412Z,96306.88
2022-11-15T16:45:39.132Z,96306.06
2022-11-15T16:48:05.882Z,96300.91
2022-11-15T16:50:40.967Z,96301.47
2022-11-15T16:53:07.607Z,96304.25
2022-11-15T16:55:34.006Z,96302.63
2022-11-15T16:58:01.747Z,96292.59
2022-11-15T17:00:28.752Z,96293.81
2022-11-15T17:02:56.078Z,96288.13
2022-11-15T17:05:24.427Z,96282.31
2022-11-15T17:07:54.109Z,96282.56
2022-11-15T17:10:23.320Z,96275.78
2022-11-15T17:12:50.748Z,96277.69
2022-11-15T17:15:17.799Z,96285.31
2022-11-15T17:17:44.748Z,96285.25
2022-11-15T17:20:15.209Z,96282.81
2022-11-15T17:22:41.904Z,96275.75
2022-11-15T17:25:08.669Z,96268.41
2022-11-15T17:27:35.240Z,96275.16
2022-11-15T17:30:01.747Z,96274.91
2022-11-15T17:32:28.309Z,96273.28
2022-11-15T17:34:54.724Z,96274.63
2022-11-15T17:37:21.102Z,96276.50
2022-11-15T17:39:47.544Z,96269.47
2022-11-15T17:42:13.945Z,96267.53
2022-11-15T17:44:40.397Z,96261.56
2022-11-15T17:47:06.892Z,96264.03
2022-11-15T17:49:34.944Z,96264.28
2022-11-15T17:52:01.393Z,96262.69
2022-11-15T17:54:27.780Z,96262.41
2022-11-15T17:56:54.229Z,96264.56
2022-11-15T17:59:21.774Z,96264.28
2022-11-15T18:01:48.270Z,96258.84
2022-11-15T18:04:15.264Z,96263.50
2022-11-15T18:06:42.292Z,96253.59
2022-11-15T18:09:08.911Z,96253.38
2022-11-15T18:11:41.431Z,96248.53
2022-11-15T18:14:12.549Z,96260.66
2022-11-15T18:16:40.223Z,96262.06
2022-11-15T18:19:13.125Z,96246.59
2022-11-15T18:21:56.913Z,96254.97
2022-11-15T18:24:25.031Z,96251.63
2022-11-15T18:26:51.476Z,96258.38
2022-11-15T18:29:18.409Z,96254.91
2022-11-15T18:31:47.772Z,96266.03
2022-11-15T18:34:14.533Z,96259.31
2022-11-15T18:36:41.263Z,96259.03
2022-11-15T18:39:07.686Z,96249.63
2022-11-15T18:41:34.574Z,96249.03
2022-11-15T18:44:02.492Z,96248.25
2022-11-15T18:46:31.769Z,96242.28
2022-11-15T18:49:00.247Z,96245.28
2022-11-15T18:51:30.105Z,96232.00
2022-11-15T18:53:59.674Z,96230.94
2022-11-15T18:56:28.260Z,96231.75
2022-11-15T18:58:56.912Z,96230.44
2022-11-15T19:01:26.475Z,96225.28
2022-11-15T19:03:55.619Z,96213.66
2022-11-15T19:06:27.398Z,96216.41
2022-11-15T19:08:56.462Z,96214.25
2022-11-15T19:11:27.985Z,96212.91
2022-11-15T19:14:03.154Z,96207.75
2022-11-15T19:16:33.071Z,96200.72
2022-11-15T19:19:02.165Z,96204.47
2022-11-15T19:21:30.850Z,96205.31
2022-11-15T19:23:58.060Z,96203.94
2022-11-15T19:26:25.596Z,96201.53
2022-11-15T19:28:57.269Z,96201.31
2022-11-15T19:31:24.305Z,96192.41
2022-11-15T19:33:52.527Z,96200.53
2022-11-15T19:36:32.394Z,96203.91
2022-11-15T19:39:05.448Z,96199.34
2022-11-15T19:41:32.375Z,96196.66
2022-11-15T19:43:59.040Z,96195.00
2022-11-15T19:46:26.821Z,96183.94
2022-11-15T19:48:53.912Z,96188.78
2022-11-15T19:51:23.123Z,96190.19
2022-11-15T19:53:54.480Z,96186.41
2022-11-15T19:56:21.886Z,96191.84
2022-11-15T19:58:53.469Z,96191.59
2022-11-15T20:01:19.799Z,96188.59
2022-11-15T20:03:47.983Z,96180.22
2022-11-15T20:06:17.196Z,96186.69
2022-11-15T20:08:45.022Z,96184.25
2022-11-15T20:11:12.463Z,96172.34
2022-11-15T20:13:39.204Z,96178.59
2022-11-15T20:16:06.046Z,96177.75
2022-11-15T20:18:32.960Z,96175.31
2022-11-15T20:21:00.089Z,96179.09
2022-11-15T20:23:27.192Z,96169.38
2022-11-15T20:25:54.240Z,96170.97
2022-11-15T20:28:27.031Z,96164.50
2022-11-15T20:30:59.245Z,96166.13
2022-11-15T20:33:26.802Z,96158.03
2022-11-15T20:35:54.303Z,96162.88
2022-11-15T20:38:21.617Z,96163.66
2022-11-15T20:40:49.501Z,96152.03
2022-11-15T20:43:17.883Z,96144.47
2022-11-15T20:45:46.266Z,96141.25
2022-11-15T20:48:13.911Z,96135.56
2022-11-15T20:50:43.263Z,96133.94
2022-11-15T20:53:12.624Z,96131.78
2022-11-15T20:55:41.304Z,96126.63
2022-11-15T20:58:09.164Z,96133.69
2022-11-15T21:00:36.963Z,96121.56
2022-11-15T21:03:07.278Z,96115.88
2022-11-15T21:05:37.851Z,96115.31
2022-11-15T21:08:04.475Z,96110.47
2022-11-15T21:10:49.643Z,96109.94
2022-11-15T21:13:16.291Z,96107.47
2022-11-15T21:15:43.165Z,96101.25
2022-11-15T21:18:09.893Z,96102.63
2022-11-15T21:20:36.363Z,96098.56
2022-11-15T21:23:03.342Z,96094.22
2022-11-15T21:25:29.862Z,96092.03
2022-11-15T21:27:56.355Z,96085.66
2022-11-15T21:30:22.810Z,96088.66
2022-11-15T21:32:49.210Z,96076.28
2022-11-15T21:35:15.692Z,96075.81
2022-11-15T21:37:42.187Z,96081.69
2022-11-15T21:40:09.083Z,96074.59
2022-11-15T21:42:35.560Z,96076.75
2022-11-15T21:45:02.221Z,96088.91
2022-11-15T21:47:28.709Z,96095.22
2022-11-15T21:49:55.127Z,96092.31
2022-11-15T21:52:21.654Z,96094.72
2022-11-15T21:54:48.093Z,96094.19
2022-11-15T21:57:14.473Z,96090.19
2022-11-15T22:00:00.845Z,96092.66
2022-11-15T22:02:27.270Z,96077.84
2022-11-15T22:04:53.660Z,96080.56
2022-11-15T22:07:20.379Z,96076.19
2022-11-15T22:09:46.990Z,96076.41
2022-11-15T22:12:13.388Z,96075.88
2022-11-15T22:14:39.805Z,96075.56
2022-11-15T22:17:06.255Z,96071.31
2022-11-15T22:19:32.747Z,96064.88
2022-11-15T22:21:59.217Z,96067.13
2022-11-15T22:24:25.822Z,96065.75
2022-11-15T22:26:52.287Z,96060.16
2022-11-15T22:29:18.832Z,96056.63
2022-11-15T22:31:46.446Z,96059.28
2022-11-15T22:34:12.921Z,96057.38
2022-11-15T22:37:05.757Z,96058.78
2022-11-15T22:39:31.674Z,96063.66
2022-11-15T22:41:59.040Z,96064.50
2022-11-15T22:44:25.470Z,96068.28
2022-11-15T22:46:51.995Z,96055.03
2022-11-15T22:49:18.451Z,96055.31
2022-11-15T22:51:44.963Z,96051.28
2022-11-15T22:54:11.480Z,96046.41
2022-11-15T22:56:37.992Z,96040.75
2022-11-15T22:59:04.467Z,96049.13
2022-11-15T23:01:30.975Z,96058.28
2022-11-15T23:03:57.557Z,96053.94
2022-11-15T23:06:24.063Z,96057.22
2022-11-15T23:08:50.540Z,96047.47
2022-11-15T23:11:36.036Z,96050.72
2022-11-15T23:14:02.588Z,96044.78
2022-11-15T23:16:35.279Z,96051.81
2022-11-15T23:19:05.004Z,96048.03
2022-11-15T23:21:59.034Z,96045.31
2022-11-15T23:24:26.287Z,96038.84
2022-11-15T23:26:55.812Z,96035.06
2022-11-15T23:29:24.839Z,96042.66
2022-11-15T23:32:11.224Z,96034.81
2022-11-15T23:34:40.232Z,96033.72
2022-11-15T23:37:08.410Z,96028.59
2022-11-15T23:39:34.871Z,96034.00
2022-11-15T23:42:07.544Z,96028.34
2022-11-15T23:44:35.399Z,96028.09
2022-11-15T23:47:01.888Z,96033.50
2022-11-15T23:49:28.339Z,96029.13
2022-11-15T23:51:55.248Z,96029.16
2022-11-15T23:54:21.725Z,96034.81
2022-11-15T23:56:48.222Z,96036.19
2022-11-15T23:59:14.771Z,96028.09
